sensor_id;sensor_type;location;lat;lon;timestamp;temperature;humidity
4673;DHT22;61885;53.560;9.940;2023-03-14T00:00:58;11.00;99.90
4673;DHT22;61885;53.560;9.940;2023-03-14T00:03:28;10.90;99.90
4673;DHT22;61885;53.560;9.940;2023-03-14T00:06:05;10.90;99.90
4673;DHT22;61885;53.560;9.940;2023-03-14T00:08:36;10.90;99.90
4673;DHT22;61885;53.560;9.940;2023-03-14T00:11:07;10.90;99.90
4673;DHT22;61885;53.560;9.940;2023-03-14T00:13:38;10.90;99.90
4673;DHT22;61885;53.560;9.940;2023-03-14T00:16:11;10.80;99.90
4673;DHT22;61885;53.560;9.940;2023-03-14T00:18:43;10.80;99.90
4673;DHT22;61885;53.560;9.940;2023-03-14T00:21:15;10.80;99.90
4673;DHT22;61885;53.560;9.940;2023-03-14T00:23:47;10.90;99.90
4673;DHT22;61885;53.560;9.940;2023-03-14T00:26:20;10.90;99.90
4673;DHT22;61885;53.560;9.940;2023-03-14T00:28:52;10.90;99.90
4673;DHT22;61885;53.560;9.940;2023-03-14T00:31:22;11.00;99.90
4673;DHT22;61885;53.560;9.940;2023-03-14T00:33:55;10.90;99.90
4673;DHT22;61885;53.560;9.940;2023-03-14T00:36:27;10.90;99.90
4673;DHT22;61885;53.560;9.940;2023-03-14T00:38:58;11.00;99.90
4673;DHT22;61885;53.560;9.940;2023-03-14T00:41:27;11.00;99.90
4673;DHT22;61885;53.560;9.940;2023-03-14T00:43:57;11.00;99.90
4673;DHT22;61885;53.560;9.940;2023-03-14T00:46:27;11.00;99.90
4673;DHT22;61885;53.560;9.940;2023-03-14T00:48:57;11.00;99.90
4673;DHT22;61885;53.560;9.940;2023-03-14T00:51:29;11.00;99.90
4673;DHT22;61885;53.560;9.940;2023-03-14T00:53:59;11.00;99.90
4673;DHT22;61885;53.560;9.940;2023-03-14T00:56:31;11.00;99.90
4673;DHT22;61885;53.560;9.940;2023-03-14T00:59:01;11.10;99.90
4673;DHT22;61885;53.560;9.940;2023-03-14T01:01:33;11.10;99.90
4673;DHT22;61885;53.560;9.940;2023-03-14T01:04:02;11.10;99.90
4673;DHT22;61885;53.560;9.940;2023-03-14T01:06:34;11.10;99.90
4673;DHT22;61885;53.560;9.940;2023-03-14T01:09:07;11.20;99.90
4673;DHT22;61885;53.560;9.940;2023-03-14T01:11:38;11.20;99.90
4673;DHT22;61885;53.560;9.940;2023-03-14T01:14:08;11.10;99.90
4673;DHT22;61885;53.560;9.940;2023-03-14T01:16:40;11.20;99.90
4673;DHT22;61885;53.560;9.940;2023-03-14T01:19:12;11.20;99.90
4673;DHT22;61885;53.560;9.940;2023-03-14T01:21:44;11.30;99.90
4673;DHT22;61885;53.560;9.940;2023-03-14T01:24:16;11.30;99.90
4673;DHT22;61885;53.560;9.940;2023-03-14T01:26:47;11.30;99.90
4673;DHT22;61885;53.560;9.940;2023-03-14T01:29:17;11.30;99.90
4673;DHT22;61885;53.560;9.940;2023-03-14T01:31:46;11.30;99.90
4673;DHT22;61885;53.560;9.940;2023-03-14T01:34:19;11.30;99.90
4673;DHT22;61885;53.560;9.940;2023-03-14T01:36:52;11.20;99.90
4673;DHT22;61885;53.560;9.940;2023-03-14T01:39:23;11.30;99.90
4673;DHT22;61885;53.560;9.940;2023-03-14T01:41:53;11.30;99.90
4673;DHT22;61885;53.560;9.940;2023-03-14T01:44:23;11.30;99.90
4673;DHT22;61885;53.560;9.940;2023-03-14T01:46:53;11.20;99.90
4673;DHT22;61885;53.560;9.940;2023-03-14T01:49:26;11.20;99.90
4673;DHT22;61885;53.560;9.940;2023-03-14T01:52:01;11.20;99.90
4673;DHT22;61885;53.560;9.940;2023-03-14T01:54:35;11.10;99.90
4673;DHT22;61885;53.560;9.940;2023-03-14T01:57:11;11.10;99.90
4673;DHT22;61885;53.560;9.940;2023-03-14T01:59:51;11.00;99.90
4673;DHT22;61885;53.560;9.940;2023-03-14T02:02:22;11.00;99.90
4673;DHT22;61885;53.560;9.940;2023-03-14T02:04:53;11.00;99.90
4673;DHT22;61885;53.560;9.940;2023-03-14T02:07:30;10.90;99.90
4673;DHT22;61885;53.560;9.940;2023-03-14T02:10:04;10.90;99.90
4673;DHT22;61885;53.560;9.940;2023-03-14T02:12:35;11.00;99.90
4673;DHT22;61885;53.560;9.940;2023-03-14T02:15:07;10.90;99.90
4673;DHT22;61885;53.560;9.940;2023-03-14T02:17:40;10.80;99.90
4673;DHT22;61885;53.560;9.940;2023-03-14T02:20:23;10.70;99.90
4673;DHT22;61885;53.560;9.940;2023-03-14T02:22:57;10.70;99.90
4673;DHT22;61885;53.560;9.940;2023-03-14T02:25:33;10.70;99.90
4673;DHT22;61885;53.560;9.940;2023-03-14T02:28:09;10.60;99.90
4673;DHT22;61885;53.560;9.940;2023-03-14T02:30:43;10.60;99.90
4673;DHT22;61885;53.560;9.940;2023-03-14T02:33:17;10.60;99.90
4673;DHT22;61885;53.560;9.940;2023-03-14T02:35:52;10.60;99.90
4673;DHT22;61885;53.560;9.940;2023-03-14T02:38:26;10.60;99.90
4673;DHT22;61885;53.560;9.940;2023-03-14T02:40:58;10.60;99.90
4673;DHT22;61885;53.560;9.940;2023-03-14T02:43:31;10.60;99.90
4673;DHT22;61885;53.560;9.940;2023-03-14T02:46:03;10.60;99.90
4673;DHT22;61885;53.560;9.940;2023-03-14T02:48:37;10.70;99.90
4673;DHT22;61885;53.560;9.940;2023-03-14T02:51:11;10.70;99.90
4673;DHT22;61885;53.560;9.940;2023-03-14T02:53:44;10.80;99.90
4673;DHT22;61885;53.560;9.940;2023-03-14T02:56:16;10.80;99.90
4673;DHT22;61885;53.560;9.940;2023-03-14T02:58:50;10.70;99.90
4673;DHT22;61885;53.560;9.940;2023-03-14T03:01:20;10.70;99.90
4673;DHT22;61885;53.560;9.940;2023-03-14T03:03:50;10.70;99.90
4673;DHT22;61885;53.560;9.940;2023-03-14T03:06:20;10.80;99.90
4673;DHT22;61885;53.560;9.940;2023-03-14T03:08:54;10.90;99.90
4673;DHT22;61885;53.560;9.940;2023-03-14T03:11:24;10.90;99.90
4673;DHT22;61885;53.560;9.940;2023-03-14T03:13:57;10.90;99.90
4673;DHT22;61885;53.560;9.940;2023-03-14T03:16:26;10.90;99.90
4673;DHT22;61885;53.560;9.940;2023-03-14T03:18:56;11.00;99.90
4673;DHT22;61885;53.560;9.940;2023-03-14T03:21:26;11.00;99.90
4673;DHT22;61885;53.560;9.940;2023-03-14T03:23:56;11.00;99.90
4673;DHT22;61885;53.560;9.940;2023-03-14T03:26:25;11.00;99.90
4673;DHT22;61885;53.560;9.940;2023-03-14T03:28:58;11.10;99.90
4673;DHT22;61885;53.560;9.940;2023-03-14T03:31:30;11.10;99.90
4673;DHT22;61885;53.560;9.940;2023-03-14T03:33:59;11.10;99.90
4673;DHT22;61885;53.560;9.940;2023-03-14T03:36:30;11.20;99.90
4673;DHT22;61885;53.560;9.940;2023-03-14T03:39:04;11.20;99.90
4673;DHT22;61885;53.560;9.940;2023-03-14T03:41:37;10.70;99.90
4673;DHT22;61885;53.560;9.940;2023-03-14T03:44:09;11.20;99.90
4673;DHT22;61885;53.560;9.940;2023-03-14T03:46:40;11.20;99.90
4673;DHT22;61885;53.560;9.940;2023-03-14T03:49:12;11.20;99.90
4673;DHT22;61885;53.560;9.940;2023-03-14T03:51:42;11.10;99.90
4673;DHT22;61885;53.560;9.940;2023-03-14T03:54:12;11.10;99.90
4673;DHT22;61885;53.560;9.940;2023-03-14T03:56:42;11.10;99.90
4673;DHT22;61885;53.560;9.940;2023-03-14T03:59:15;11.10;99.90
4673;DHT22;61885;53.560;9.940;2023-03-14T04:01:45;11.00;99.90
4673;DHT22;61885;53.560;9.940;2023-03-14T04:04:14;11.00;99.90
4673;DHT22;61885;53.560;9.940;2023-03-14T04:06:44;11.10;99.90
4673;DHT22;61885;53.560;9.940;2023-03-14T04:09:14;11.00;99.90
4673;DHT22;61885;53.560;9.940;2023-03-14T04:11:44;11.00;99.90
4673;DHT22;61885;53.560;9.940;2023-03-14T04:14:16;11.00;99.90
4673;DHT22;61885;53.560;9.940;2023-03-14T04:16:46;11.00;99.90
4673;DHT22;61885;53.560;9.940;2023-03-14T04:19:15;11.00;99.90
4673;DHT22;61885;53.560;9.940;2023-03-14T04:21:46;10.90;99.90
4673;DHT22;61885;53.560;9.940;2023-03-14T04:24:16;10.90;99.90
4673;DHT22;61885;53.560;9.940;2023-03-14T04:26:45;10.90;99.90
4673;DHT22;61885;53.560;9.940;2023-03-14T04:29:18;10.90;99.90
4673;DHT22;61885;53.560;9.940;2023-03-14T04:31:48;10.90;99.90
4673;DHT22;61885;53.560;9.940;2023-03-14T04:34:24;10.90;99.90
4673;DHT22;61885;53.560;9.940;2023-03-14T04:36:54;10.90;99.90
4673;DHT22;61885;53.560;9.940;2023-03-14T04:39:26;10.90;99.90
4673;DHT22;61885;53.560;9.940;2023-03-14T04:41:56;10.90;99.90
4673;DHT22;61885;53.560;9.940;2023-03-14T04:44:28;11.00;99.90
4673;DHT22;61885;53.560;9.940;2023-03-14T04:46:58;10.90;99.90
4673;DHT22;61885;53.560;9.940;2023-03-14T04:49:28;10.90;99.90
4673;DHT22;61885;53.560;9.940;2023-03-14T04:51:57;10.90;99.90
4673;DHT22;61885;53.560;9.940;2023-03-14T04:54:27;10.90;99.90
4673;DHT22;61885;53.560;9.940;2023-03-14T04:56:57;10.90;99.90
4673;DHT22;61885;53.560;9.940;2023-03-14T04:59:29;10.90;99.90
4673;DHT22;61885;53.560;9.940;2023-03-14T05:01:59;10.90;99.90
4673;DHT22;61885;53.560;9.940;2023-03-14T05:04:31;10.90;99.90
4673;DHT22;61885;53.560;9.940;2023-03-14T05:07:03;10.90;99.90
4673;DHT22;61885;53.560;9.940;2023-03-14T05:09:34;10.90;99.90
4673;DHT22;61885;53.560;9.940;2023-03-14T05:12:04;10.90;99.90
4673;DHT22;61885;53.560;9.940;2023-03-14T05:14:37;10.60;99.90
4673;DHT22;61885;53.560;9.940;2023-03-14T05:17:07;10.20;99.90
4673;DHT22;61885;53.560;9.940;2023-03-14T05:19:37;9.70;99.90
4673;DHT22;61885;53.560;9.940;2023-03-14T05:22:08;9.50;99.90
4673;DHT22;61885;53.560;9.940;2023-03-14T05:24:38;9.30;99.90
4673;DHT22;61885;53.560;9.940;2023-03-14T05:27:09;9.10;99.90
4673;DHT22;61885;53.560;9.940;2023-03-14T05:29:42;9.00;99.90
4673;DHT22;61885;53.560;9.940;2023-03-14T05:32:11;9.00;99.90
4673;DHT22;61885;53.560;9.940;2023-03-14T05:34:41;9.00;99.90
4673;DHT22;61885;53.560;9.940;2023-03-14T05:37:10;9.00;99.90
4673;DHT22;61885;53.560;9.940;2023-03-14T05:39:42;8.90;99.90
4673;DHT22;61885;53.560;9.940;2023-03-14T05:42:13;8.90;99.90
4673;DHT22;61885;53.560;9.940;2023-03-14T05:44:46;8.90;99.90
4673;DHT22;61885;53.560;9.940;2023-03-14T05:47:26;8.90;99.90
4673;DHT22;61885;53.560;9.940;2023-03-14T05:49:56;9.00;99.90
4673;DHT22;61885;53.560;9.940;2023-03-14T05:52:27;9.00;99.90
4673;DHT22;61885;53.560;9.940;2023-03-14T05:54:56;9.00;99.90
4673;DHT22;61885;53.560;9.940;2023-03-14T05:57:27;9.00;99.90
4673;DHT22;61885;53.560;9.940;2023-03-14T06:00:02;9.20;99.90
4673;DHT22;61885;53.560;9.940;2023-03-14T06:02:32;9.40;99.90
4673;DHT22;61885;53.560;9.940;2023-03-14T06:05:02;9.30;99.90
4673;DHT22;61885;53.560;9.940;2023-03-14T06:07:31;9.30;99.90
4673;DHT22;61885;53.560;9.940;2023-03-14T06:10:04;9.50;99.90
4673;DHT22;61885;53.560;9.940;2023-03-14T06:12:34;9.40;99.90
4673;DHT22;61885;53.560;9.940;2023-03-14T06:15:07;9.30;99.90
4673;DHT22;61885;53.560;9.940;2023-03-14T06:17:40;9.30;99.90
4673;DHT22;61885;53.560;9.940;2023-03-14T06:20:16;9.30;99.90
4673;DHT22;61885;53.560;9.940;2023-03-14T06:22:54;9.30;99.90
4673;DHT22;61885;53.560;9.940;2023-03-14T06:25:24;9.30;99.90
4673;DHT22;61885;53.560;9.940;2023-03-14T06:27:53;9.30;99.90
4673;DHT22;61885;53.560;9.940;2023-03-14T06:30:28;9.30;99.90
4673;DHT22;61885;53.560;9.940;2023-03-14T06:32:59;9.30;99.90
4673;DHT22;61885;53.560;9.940;2023-03-14T06:35:30;9.30;99.90
4673;DHT22;61885;53.560;9.940;2023-03-14T06:38:00;9.40;99.90
4673;DHT22;61885;53.560;9.940;2023-03-14T06:40:32;9.40;99.90
4673;DHT22;61885;53.560;9.940;2023-03-14T06:43:02;9.50;99.90
4673;DHT22;61885;53.560;9.940;2023-03-14T06:45:35;9.50;99.90
4673;DHT22;61885;53.560;9.940;2023-03-14T06:48:05;9.50;99.90
4673;DHT22;61885;53.560;9.940;2023-03-14T06:50:34;9.50;99.90
4673;DHT22;61885;53.560;9.940;2023-03-14T06:53:04;9.50;99.90
4673;DHT22;61885;53.560;9.940;2023-03-14T06:55:33;9.50;99.90
4673;DHT22;61885;53.560;9.940;2023-03-14T06:58:03;9.50;99.90
4673;DHT22;61885;53.560;9.940;2023-03-14T07:00:37;9.50;99.90
4673;DHT22;61885;53.560;9.940;2023-03-14T07:03:07;9.60;99.90
4673;DHT22;61885;53.560;9.940;2023-03-14T07:05:36;9.70;99.90
4673;DHT22;61885;53.560;9.940;2023-03-14T07:08:07;9.70;99.90
4673;DHT22;61885;53.560;9.940;2023-03-14T07:10:38;9.70;99.90
4673;DHT22;61885;53.560;9.940;2023-03-14T07:13:08;9.70;99.90
4673;DHT22;61885;53.560;9.940;2023-03-14T07:15:44;9.70;99.90
4673;DHT22;61885;53.560;9.940;2023-03-14T07:18:17;9.80;99.90
4673;DHT22;61885;53.560;9.940;2023-03-14T07:20:48;9.80;99.90
4673;DHT22;61885;53.560;9.940;2023-03-14T07:23:18;9.80;99.90
4673;DHT22;61885;53.560;9.940;2023-03-14T07:25:48;9.80;99.90
4673;DHT22;61885;53.560;9.940;2023-03-14T07:28:20;9.80;99.90
4673;DHT22;61885;53.560;9.940;2023-03-14T07:30:54;9.80;99.90
4673;DHT22;61885;53.560;9.940;2023-03-14T07:33:24;9.80;99.90
4673;DHT22;61885;53.560;9.940;2023-03-14T07:35:53;9.80;99.90
4673;DHT22;61885;53.560;9.940;2023-03-14T07:38:26;9.90;99.90
4673;DHT22;61885;53.560;9.940;2023-03-14T07:40:58;9.90;99.90
4673;DHT22;61885;53.560;9.940;2023-03-14T07:43:29;9.80;99.90
4673;DHT22;61885;53.560;9.940;2023-03-14T07:46:04;9.70;99.90
4673;DHT22;61885;53.560;9.940;2023-03-14T07:48:35;9.70;99.90
4673;DHT22;61885;53.560;9.940;2023-03-14T07:51:06;9.70;99.90
4673;DHT22;61885;53.560;9.940;2023-03-14T07:53:36;9.60;99.90
4673;DHT22;61885;53.560;9.940;2023-03-14T07:56:10;9.70;99.90
4673;DHT22;61885;53.560;9.940;2023-03-14T07:58:42;9.70;99.90
4673;DHT22;61885;53.560;9.940;2023-03-14T08:01:14;9.80;99.90
4673;DHT22;61885;53.560;9.940;2023-03-14T08:03:44;9.80;99.90
4673;DHT22;61885;53.560;9.940;2023-03-14T08:06:13;9.90;99.90
4673;DHT22;61885;53.560;9.940;2023-03-14T08:08:43;9.90;99.90
4673;DHT22;61885;53.560;9.940;2023-03-14T08:11:13;10.00;99.90
4673;DHT22;61885;53.560;9.940;2023-03-14T08:13:42;10.10;99.90
4673;DHT22;61885;53.560;9.940;2023-03-14T08:16:19;10.20;99.90
4673;DHT22;61885;53.560;9.940;2023-03-14T08:18:49;10.30;99.90
4673;DHT22;61885;53.560;9.940;2023-03-14T08:21:19;10.30;99.90
4673;DHT22;61885;53.560;9.940;2023-03-14T08:23:51;10.30;99.90
4673;DHT22;61885;53.560;9.940;2023-03-14T08:26:22;10.30;99.90
4673;DHT22;61885;53.560;9.940;2023-03-14T08:28:53;10.30;99.90
4673;DHT22;61885;53.560;9.940;2023-03-14T08:31:25;10.30;99.90
4673;DHT22;61885;53.560;9.940;2023-03-14T08:33:55;10.40;99.90
4673;DHT22;61885;53.560;9.940;2023-03-14T08:36:26;10.40;99.90
4673;DHT22;61885;53.560;9.940;2023-03-14T08:38:58;10.40;99.90
4673;DHT22;61885;53.560;9.940;2023-03-14T08:41:28;10.40;99.90
4673;DHT22;61885;53.560;9.940;2023-03-14T08:44:03;10.50;99.90
4673;DHT22;61885;53.560;9.940;2023-03-14T08:46:35;10.50;99.90
4673;DHT22;61885;53.560;9.940;2023-03-14T08:49:07;10.50;99.90
4673;DHT22;61885;53.560;9.940;2023-03-14T08:51:37;10.40;99.90
4673;DHT22;61885;53.560;9.940;2023-03-14T08:54:09;10.40;99.90
4673;DHT22;61885;53.560;9.940;2023-03-14T08:56:39;10.30;99.90
4673;DHT22;61885;53.560;9.940;2023-03-14T08:59:11;10.20;99.90
4673;DHT22;61885;53.560;9.940;2023-03-14T09:01:45;10.20;99.90
4673;DHT22;61885;53.560;9.940;2023-03-14T09:04:16;10.00;99.90
4673;DHT22;61885;53.560;9.940;2023-03-14T09:06:47;10.00;99.90
4673;DHT22;61885;53.560;9.940;2023-03-14T09:09:17;9.90;99.90
4673;DHT22;61885;53.560;9.940;2023-03-14T09:11:49;9.90;99.90
4673;DHT22;61885;53.560;9.940;2023-03-14T09:14:19;9.90;99.90
4673;DHT22;61885;53.560;9.940;2023-03-14T09:16:54;9.90;99.90
4673;DHT22;61885;53.560;9.940;2023-03-14T09:19:24;9.90;99.90
4673;DHT22;61885;53.560;9.940;2023-03-14T09:21:58;9.90;99.90
4673;DHT22;61885;53.560;9.940;2023-03-14T09:24:27;10.00;99.90
4673;DHT22;61885;53.560;9.940;2023-03-14T09:26:58;10.00;99.90
4673;DHT22;61885;53.560;9.940;2023-03-14T09:29:28;10.10;99.90
4673;DHT22;61885;53.560;9.940;2023-03-14T09:32:01;10.10;99.90
4673;DHT22;61885;53.560;9.940;2023-03-14T09:34:33;10.10;99.90
4673;DHT22;61885;53.560;9.940;2023-03-14T09:37:02;10.20;99.90
4673;DHT22;61885;53.560;9.940;2023-03-14T09:39:32;10.30;99.90
4673;DHT22;61885;53.560;9.940;2023-03-14T09:42:04;10.30;99.90
4673;DHT22;61885;53.560;9.940;2023-03-14T09:44:39;10.30;99.90
4673;DHT22;61885;53.560;9.940;2023-03-14T09:47:16;10.20;99.90
4673;DHT22;61885;53.560;9.940;2023-03-14T09:49:49;10.00;99.90
4673;DHT22;61885;53.560;9.940;2023-03-14T09:52:23;9.90;99.90
4673;DHT22;61885;53.560;9.940;2023-03-14T09:54:57;9.50;99.90
4673;DHT22;61885;53.560;9.940;2023-03-14T09:57:29;8.40;99.90
4673;DHT22;61885;53.560;9.940;2023-03-14T10:00:03;7.90;99.90
4673;DHT22;61885;53.560;9.940;2023-03-14T10:02:47;7.60;99.90
4673;DHT22;61885;53.560;9.940;2023-03-14T10:05:29;7.40;99.90
4673;DHT22;61885;53.560;9.940;2023-03-14T10:07:59;7.20;99.90
4673;DHT22;61885;53.560;9.940;2023-03-14T10:10:29;7.10;99.90
4673;DHT22;61885;53.560;9.940;2023-03-14T10:12:59;7.00;99.90
4673;DHT22;61885;53.560;9.940;2023-03-14T10:15:34;6.90;99.90
4673;DHT22;61885;53.560;9.940;2023-03-14T10:18:12;6.70;99.90
4673;DHT22;61885;53.560;9.940;2023-03-14T10:20:44;6.70;99.90
4673;DHT22;61885;53.560;9.940;2023-03-14T10:23:24;6.70;99.90
4673;DHT22;61885;53.560;9.940;2023-03-14T10:26:04;6.70;99.90
4673;DHT22;61885;53.560;9.940;2023-03-14T10:28:43;6.60;99.90
4673;DHT22;61885;53.560;9.940;2023-03-14T10:34:02;6.00;99.90
4673;DHT22;61885;53.560;9.940;2023-03-14T10:36:36;5.80;99.90
4673;DHT22;61885;53.560;9.940;2023-03-14T10:39:27;5.60;99.90
4673;DHT22;61885;53.560;9.940;2023-03-14T10:42:04;5.40;99.90
4673;DHT22;61885;53.560;9.940;2023-03-14T10:44:38;5.20;99.90
4673;DHT22;61885;53.560;9.940;2023-03-14T10:47:18;5.10;99.90
4673;DHT22;61885;53.560;9.940;2023-03-14T10:50:21;3.80;99.90
4673;DHT22;61885;53.560;9.940;2023-03-14T10:52:53;4.90;99.90
4673;DHT22;61885;53.560;9.940;2023-03-14T10:55:25;4.70;99.90
4673;DHT22;61885;53.560;9.940;2023-03-14T10:57:55;4.70;99.90
4673;DHT22;61885;53.560;9.940;2023-03-14T11:00:27;5.00;99.90
4673;DHT22;61885;53.560;9.940;2023-03-14T11:03:07;4.60;99.90
4673;DHT22;61885;53.560;9.940;2023-03-14T11:05:45;4.90;99.90
4673;DHT22;61885;53.560;9.940;2023-03-14T11:08:23;4.30;99.90
4673;DHT22;61885;53.560;9.940;2023-03-14T11:11:10;4.60;99.90
4673;DHT22;61885;53.560;9.940;2023-03-14T11:13:54;4.50;99.90
4673;DHT22;61885;53.560;9.940;2023-03-14T11:16:32;4.50;99.90
4673;DHT22;61885;53.560;9.940;2023-03-14T11:19:19;4.40;99.90
4673;DHT22;61885;53.560;9.940;2023-03-14T11:21:59;4.30;99.90
4673;DHT22;61885;53.560;9.940;2023-03-14T11:24:44;4.40;99.90
4673;DHT22;61885;53.560;9.940;2023-03-14T11:27:22;4.40;99.90
4673;DHT22;61885;53.560;9.940;2023-03-14T11:29:55;4.40;99.90
4673;DHT22;61885;53.560;9.940;2023-03-14T11:32:42;4.30;99.90
4673;DHT22;61885;53.560;9.940;2023-03-14T11:35:19;4.30;99.90
4673;DHT22;61885;53.560;9.940;2023-03-14T11:38:05;4.30;99.90
4673;DHT22;61885;53.560;9.940;2023-03-14T11:40:39;4.30;99.90
4673;DHT22;61885;53.560;9.940;2023-03-14T11:43:14;4.80;99.90
4673;DHT22;61885;53.560;9.940;2023-03-14T11:45:48;4.50;99.90
4673;DHT22;61885;53.560;9.940;2023-03-14T11:48:28;4.60;99.90
4673;DHT22;61885;53.560;9.940;2023-03-14T11:51:04;4.70;99.90
4673;DHT22;61885;53.560;9.940;2023-03-14T11:53:43;4.90;99.90
4673;DHT22;61885;53.560;9.940;2023-03-14T11:56:25;4.90;99.90
4673;DHT22;61885;53.560;9.940;2023-03-14T11:58:59;4.80;99.90
4673;DHT22;61885;53.560;9.940;2023-03-14T12:01:54;4.90;99.90
4673;DHT22;61885;53.560;9.940;2023-03-14T12:05:03;4.90;99.90
4673;DHT22;61885;53.560;9.940;2023-03-14T12:07:39;4.90;99.90
4673;DHT22;61885;53.560;9.940;2023-03-14T12:10:14;5.00;99.90
4673;DHT22;61885;53.560;9.940;2023-03-14T12:12:44;5.10;99.90
4673;DHT22;61885;53.560;9.940;2023-03-14T12:15:21;5.00;99.90
4673;DHT22;61885;53.560;9.940;2023-03-14T12:17:57;5.20;99.90
4673;DHT22;61885;53.560;9.940;2023-03-14T12:20:27;5.70;99.90
4673;DHT22;61885;53.560;9.940;2023-03-14T12:23:02;5.10;99.90
4673;DHT22;61885;53.560;9.940;2023-03-14T12:25:36;5.10;99.90
4673;DHT22;61885;53.560;9.940;2023-03-14T12:28:18;4.70;99.90
4673;DHT22;61885;53.560;9.940;2023-03-14T12:30:53;5.20;99.90
4673;DHT22;61885;53.560;9.940;2023-03-14T12:33:32;5.20;99.90
4673;DHT22;61885;53.560;9.940;2023-03-14T12:39:35;5.30;99.90
4673;DHT22;61885;53.560;9.940;2023-03-14T12:42:17;5.30;99.90
4673;DHT22;61885;53.560;9.940;2023-03-14T12:45:23;5.50;99.90
4673;DHT22;61885;53.560;9.940;2023-03-14T12:48:00;6.20;99.90
4673;DHT22;61885;53.560;9.940;2023-03-14T12:50:35;4.80;99.90
4673;DHT22;61885;53.560;9.940;2023-03-14T12:56:40;6.00;99.90
4673;DHT22;61885;53.560;9.940;2023-03-14T13:02:40;5.30;99.90
4673;DHT22;61885;53.560;9.940;2023-03-14T13:05:33;5.50;99.90
4673;DHT22;61885;53.560;9.940;2023-03-14T13:08:10;4.90;99.90
4673;DHT22;61885;53.560;9.940;2023-03-14T13:10:45;5.00;99.90
4673;DHT22;61885;53.560;9.940;2023-03-14T13:13:24;5.20;99.90
4673;DHT22;61885;53.560;9.940;2023-03-14T13:16:03;5.40;99.90
4673;DHT22;61885;53.560;9.940;2023-03-14T13:18:40;5.80;99.90
4673;DHT22;61885;53.560;9.940;2023-03-14T13:21:15;5.90;99.90
4673;DHT22;61885;53.560;9.940;2023-03-14T13:23:57;6.50;98.10
4673;DHT22;61885;53.560;9.940;2023-03-14T13:26:36;6.20;69.80
4673;DHT22;61885;53.560;9.940;2023-03-14T13:29:15;6.30;43.70
4673;DHT22;61885;53.560;9.940;2023-03-14T13:31:48;6.10;25.00
4673;DHT22;61885;53.560;9.940;2023-03-14T13:34:31;6.10;14.70
4673;DHT22;61885;53.560;9.940;2023-03-14T13:37:02;6.20;7.70
4673;DHT22;61885;53.560;9.940;2023-03-14T13:39:34;6.20;1.00
4673;DHT22;61885;53.560;9.940;2023-03-14T13:42:14;6.10;2.40
4673;DHT22;61885;53.560;9.940;2023-03-14T13:44:46;6.20;3.80
4673;DHT22;61885;53.560;9.940;2023-03-14T13:47:25;6.20;1.00
4673;DHT22;61885;53.560;9.940;2023-03-14T13:50:01;6.30;1.00
4673;DHT22;61885;53.560;9.940;2023-03-14T13:52:38;6.40;1.00
4673;DHT22;61885;53.560;9.940;2023-03-14T13:55:16;6.40;1.00
4673;DHT22;61885;53.560;9.940;2023-03-14T13:57:50;6.30;1.00
4673;DHT22;61885;53.560;9.940;2023-03-14T14:00:23;6.50;1.00
4673;DHT22;61885;53.560;9.940;2023-03-14T14:02:57;6.40;2.20
4673;DHT22;61885;53.560;9.940;2023-03-14T14:05:32;6.30;4.10
4673;DHT22;61885;53.560;9.940;2023-03-14T14:08:11;6.20;6.00
4673;DHT22;61885;53.560;9.940;2023-03-14T14:10:49;5.90;10.80
4673;DHT22;61885;53.560;9.940;2023-03-14T14:13:21;5.90;13.20
4673;DHT22;61885;53.560;9.940;2023-03-14T14:15:53;5.80;14.40
4673;DHT22;61885;53.560;9.940;2023-03-14T14:18:25;6.20;13.00
4673;DHT22;61885;53.560;9.940;2023-03-14T14:20:59;6.50;5.80
4673;DHT22;61885;53.560;9.940;2023-03-14T14:23:30;6.60;4.00
4673;DHT22;61885;53.560;9.940;2023-03-14T14:26:01;6.60;3.70
4673;DHT22;61885;53.560;9.940;2023-03-14T14:28:36;6.70;1.00
4673;DHT22;61885;53.560;9.940;2023-03-14T14:31:19;6.50;1.00
4673;DHT22;61885;53.560;9.940;2023-03-14T14:33:59;6.70;1.00
4673;DHT22;61885;53.560;9.940;2023-03-14T14:36:37;6.60;1.00
4673;DHT22;61885;53.560;9.940;2023-03-14T14:39:17;6.50;1.00
4673;DHT22;61885;53.560;9.940;2023-03-14T14:41:52;6.40;1.00
4673;DHT22;61885;53.560;9.940;2023-03-14T14:44:29;6.40;1.00
4673;DHT22;61885;53.560;9.940;2023-03-14T14:47:01;6.50;1.00
4673;DHT22;61885;53.560;9.940;2023-03-14T14:49:33;6.50;1.00
4673;DHT22;61885;53.560;9.940;2023-03-14T14:52:12;6.50;1.00
4673;DHT22;61885;53.560;9.940;2023-03-14T14:54:47;6.50;1.00
4673;DHT22;61885;53.560;9.940;2023-03-14T14:57:19;6.80;1.00
4673;DHT22;61885;53.560;9.940;2023-03-14T14:59:50;6.70;1.00
4673;DHT22;61885;53.560;9.940;2023-03-14T15:02:29;6.60;1.00
4673;DHT22;61885;53.560;9.940;2023-03-14T15:05:00;6.30;1.00
4673;DHT22;61885;53.560;9.940;2023-03-14T15:07:32;6.20;1.00
4673;DHT22;61885;53.560;9.940;2023-03-14T15:10:02;6.00;1.00
4673;DHT22;61885;53.560;9.940;2023-03-14T15:12:35;6.20;1.00
4673;DHT22;61885;53.560;9.940;2023-03-14T15:15:06;6.40;1.00
4673;DHT22;61885;53.560;9.940;2023-03-14T15:17:36;6.30;1.00
4673;DHT22;61885;53.560;9.940;2023-03-14T15:20:12;6.10;1.00
4673;DHT22;61885;53.560;9.940;2023-03-14T15:22:48;6.00;1.00
4673;DHT22;61885;53.560;9.940;2023-03-14T15:25:32;6.00;1.00
4673;DHT22;61885;53.560;9.940;2023-03-14T15:28:05;6.40;1.00
4673;DHT22;61885;53.560;9.940;2023-03-14T15:30:35;6.80;1.00
4673;DHT22;61885;53.560;9.940;2023-03-14T15:33:06;7.10;1.00
4673;DHT22;61885;53.560;9.940;2023-03-14T15:35:36;7.40;1.00
4673;DHT22;61885;53.560;9.940;2023-03-14T15:38:15;7.20;1.00
4673;DHT22;61885;53.560;9.940;2023-03-14T15:40:49;6.90;1.00
4673;DHT22;61885;53.560;9.940;2023-03-14T15:43:22;6.30;1.00
4673;DHT22;61885;53.560;9.940;2023-03-14T15:45:51;6.30;1.00
4673;DHT22;61885;53.560;9.940;2023-03-14T15:48:25;6.00;1.00
4673;DHT22;61885;53.560;9.940;2023-03-14T15:50:57;6.00;1.00
4673;DHT22;61885;53.560;9.940;2023-03-14T15:53:30;6.00;1.00
4673;DHT22;61885;53.560;9.940;2023-03-14T15:55:59;5.90;1.00
4673;DHT22;61885;53.560;9.940;2023-03-14T15:58:29;6.00;1.00
4673;DHT22;61885;53.560;9.940;2023-03-14T16:01:01;6.40;1.00
4673;DHT22;61885;53.560;9.940;2023-03-14T16:03:33;6.80;1.00
4673;DHT22;61885;53.560;9.940;2023-03-14T16:06:03;6.70;1.00
4673;DHT22;61885;53.560;9.940;2023-03-14T16:08:36;7.00;1.00
4673;DHT22;61885;53.560;9.940;2023-03-14T16:11:09;6.70;1.00
4673;DHT22;61885;53.560;9.940;2023-03-14T16:13:40;6.50;1.00
4673;DHT22;61885;53.560;9.940;2023-03-14T16:16:10;6.60;1.00
4673;DHT22;61885;53.560;9.940;2023-03-14T16:18:43;6.90;1.00
4673;DHT22;61885;53.560;9.940;2023-03-14T16:21:14;7.20;1.00
4673;DHT22;61885;53.560;9.940;2023-03-14T16:23:48;7.00;1.00
4673;DHT22;61885;53.560;9.940;2023-03-14T16:26:19;6.70;1.00
4673;DHT22;61885;53.560;9.940;2023-03-14T16:28:48;6.10;1.00
4673;DHT22;61885;53.560;9.940;2023-03-14T16:31:19;5.80;1.00
4673;DHT22;61885;53.560;9.940;2023-03-14T16:33:51;5.70;1.00
4673;DHT22;61885;53.560;9.940;2023-03-14T16:36:22;5.50;1.00
4673;DHT22;61885;53.560;9.940;2023-03-14T16:38:57;5.40;1.00
4673;DHT22;61885;53.560;9.940;2023-03-14T16:41:28;5.40;1.00
4673;DHT22;61885;53.560;9.940;2023-03-14T16:43:58;5.40;1.00
4673;DHT22;61885;53.560;9.940;2023-03-14T16:46:34;5.40;1.00
4673;DHT22;61885;53.560;9.940;2023-03-14T16:49:05;5.40;1.00